createdAt,value
2023-04-21T00:00:46.086Z,7.89
2023-04-21T00:01:48.686Z,7.77
2023-04-21T00:02:51.786Z,7.81
2023-04-21T00:03:55.523Z,7.73
2023-04-21T00:04:57.768Z,7.72
2023-04-21T00:06:00.302Z,7.80
2023-04-21T00:07:03.353Z,7.80
2023-04-21T00:08:06.436Z,7.71
2023-04-21T00:09:08.109Z,7.55
2023-04-21T00:10:11.797Z,7.63
2023-04-21T00:11:15.098Z,7.62
2023-04-21T00:12:17.610Z,7.62
2023-04-21T00:13:19.272Z,7.67
2023-04-21T00:14:21.778Z,7.66
2023-04-21T00:15:23.372Z,7.68
2023-04-21T00:16:26.145Z,7.59
2023-04-21T00:17:27.940Z,7.62
2023-04-21T00:18:32.167Z,7.66
2023-04-21T00:19:35.280Z,7.68
2023-04-21T00:20:39.259Z,7.63
2023-04-21T00:21:40.878Z,7.55
2023-04-21T00:22:43.703Z,7.58
2023-04-21T00:23:47.272Z,7.54
2023-04-21T00:24:49.764Z,7.54
2023-04-21T00:25:52.325Z,7.58
2023-04-21T00:26:55.193Z,7.52
2023-04-21T00:27:57.005Z,7.35
2023-04-21T00:28:59.471Z,7.45
2023-04-21T00:30:01.030Z,7.45
2023-04-21T00:31:03.556Z,7.30
2023-04-21T00:32:08.447Z,7.47
2023-04-21T00:33:11.013Z,7.56
2023-04-21T00:34:13.854Z,7.62
2023-04-21T00:35:16.375Z,7.47
2023-04-21T00:36:17.876Z,7.49
2023-04-21T00:37:20.398Z,7.38
2023-04-21T00:38:21.969Z,7.43
2023-04-21T00:39:24.419Z,7.54
2023-04-21T00:40:25.966Z,7.60
2023-04-21T00:41:29.522Z,7.56
2023-04-21T00:42:31.654Z,7.65
2023-04-21T00:43:34.068Z,7.62
2023-04-21T00:44:35.591Z,7.48
2023-04-21T00:45:38.035Z,7.51
2023-04-21T00:46:39.647Z,7.53
2023-04-21T00:47:42.157Z,7.59
2023-04-21T00:48:43.657Z,7.57
2023-04-21T00:49:48.160Z,7.58
2023-04-21T00:50:49.834Z,7.38
2023-04-21T00:51:53.685Z,7.44
2023-04-21T00:52:56.267Z,7.50
2023-04-21T00:53:58.816Z,7.46
2023-04-21T00:55:00.903Z,7.50
2023-04-21T00:56:03.549Z,7.52
2023-04-21T00:57:07.747Z,7.52
2023-04-21T00:58:10.215Z,7.52
2023-04-21T00:59:11.736Z,7.57
2023-04-21T01:00:15.349Z,7.55
2023-04-21T01:01:17.470Z,7.43
2023-04-21T01:02:20.952Z,7.41
2023-04-21T01:03:22.765Z,7.42
2023-04-21T01:04:25.719Z,7.34
2023-04-21T01:05:28.621Z,7.45
2023-04-21T01:06:32.392Z,7.36
2023-04-21T01:07:33.988Z,7.21
2023-04-21T01:08:37.028Z,7.08
2023-04-21T01:09:38.728Z,7.06
2023-04-21T01:10:41.224Z,7.04
2023-04-21T01:11:42.756Z,6.96
2023-04-21T01:12:46.576Z,7.13
2023-04-21T01:13:48.086Z,7.26
2023-04-21T01:14:51.016Z,7.37
2023-04-21T01:15:52.550Z,7.38
2023-04-21T01:16:55.202Z,7.36
2023-04-21T01:17:58.210Z,7.40
2023-04-21T01:19:01.509Z,7.29
2023-04-21T01:20:08.577Z,7.39
2023-04-21T01:21:13.090Z,7.40
2023-04-21T01:22:16.780Z,7.29
2023-04-21T01:23:21.045Z,7.20
2023-04-21T01:24:22.782Z,7.32
2023-04-21T01:25:28.239Z,7.33
2023-04-21T01:26:29.718Z,7.29
2023-04-21T01:27:32.388Z,7.38
2023-04-21T01:28:33.941Z,7.40
2023-04-21T01:29:36.448Z,7.36
2023-04-21T01:30:37.985Z,7.36
2023-04-21T01:31:40.549Z,7.40
2023-04-21T01:32:42.201Z,7.40
2023-04-21T01:33:44.934Z,7.38
2023-04-21T01:34:47.812Z,7.42
2023-04-21T01:35:50.635Z,7.41
2023-04-21T01:36:52.153Z,7.46
2023-04-21T01:37:56.032Z,7.46
2023-04-21T01:38:57.948Z,7.44
2023-04-21T01:40:04.845Z,7.44
2023-04-21T01:41:06.501Z,7.32
2023-04-21T01:42:09.487Z,7.08
2023-04-21T01:43:11.356Z,7.11
2023-04-21T01:44:13.810Z,7.20
2023-04-21T01:45:15.319Z,7.30
2023-04-21T01:46:20.384Z,7.38
2023-04-21T01:47:25.151Z,7.21
2023-04-21T01:48:27.812Z,7.24
2023-04-21T01:49:29.376Z,7.36
2023-04-21T01:50:32.310Z,7.43
2023-04-21T01:51:34.048Z,7.43
2023-04-21T01:52:36.554Z,7.45
2023-04-21T01:53:39.421Z,7.47
2023-04-21T01:54:41.911Z,7.38
2023-04-21T01:55:43.514Z,7.47
2023-04-21T01:56:46.011Z,7.50
2023-04-21T01:57:47.586Z,7.41
2023-04-21T01:58:50.313Z,7.46
2023-04-21T01:59:51.850Z,7.43
2023-04-21T02:00:55.146Z,7.56
2023-04-21T02:01:57.057Z,7.69
2023-04-21T02:02:59.806Z,7.81
2023-04-21T02:04:02.617Z,7.75
2023-04-21T02:05:06.070Z,7.75
2023-04-21T02:06:07.966Z,7.69
2023-04-21T02:07:10.434Z,7.70
2023-04-21T02:08:12.939Z,7.58
2023-04-21T02:09:16.869Z,7.54
2023-04-21T02:10:18.514Z,7.42
2023-04-21T02:11:20.968Z,7.50
2023-04-21T02:12:22.495Z,7.62
2023-04-21T02:13:25.294Z,7.55
2023-04-21T02:14:26.997Z,7.67
2023-04-21T02:15:29.620Z,7.75
2023-04-21T02:16:31.257Z,7.81
2023-04-21T02:17:34.052Z,7.87
2023-04-21T02:18:39.867Z,7.89
2023-04-21T02:19:42.309Z,7.98
2023-04-21T02:20:43.925Z,8.03
2023-04-21T02:21:46.394Z,7.97
2023-04-21T02:22:47.909Z,7.98
2023-04-21T02:23:51.047Z,8.09
2023-04-21T02:24:53.822Z,8.15
2023-04-21T02:25:56.259Z,8.24
2023-04-21T02:26:58.819Z,8.19
2023-04-21T02:28:01.238Z,8.23
2023-04-21T02:29:02.977Z,8.22
2023-04-21T02:30:06.957Z,8.13
2023-04-21T02:31:08.678Z,8.10
2023-04-21T02:32:22.357Z,8.18
2023-04-21T02:33:27.390Z,8.24
2023-04-21T02:34:30.112Z,8.25
2023-04-21T02:35:33.651Z,8.09
2023-04-21T02:36:36.391Z,8.10
2023-04-21T02:37:38.039Z,7.98
2023-04-21T02:38:40.645Z,8.03
2023-04-21T02:39:43.673Z,8.08
2023-04-21T02:40:47.487Z,8.09
2023-04-21T02:41:48.999Z,8.12
2023-04-21T02:42:51.479Z,8.06
2023-04-21T02:43:52.951Z,8.08
2023-04-21T02:44:55.361Z,8.02
2023-04-21T02:45:56.923Z,7.93
2023-04-21T02:46:59.538Z,7.95
2023-04-21T02:48:01.251Z,7.97
2023-04-21T02:49:03.870Z,8.04
2023-04-21T02:50:06.701Z,7.97
2023-04-21T02:51:12.698Z,7.94
2023-04-21T02:52:14.241Z,7.94
2023-04-21T02:53:17.347Z,7.76
2023-04-21T02:54:19.067Z,7.72
2023-04-21T02:55:22.505Z,7.70
2023-04-21T02:56:25.534Z,7.74
2023-04-21T02:57:28.087Z,7.77
2023-04-21T02:58:29.558Z,7.78
2023-04-21T02:59:32.114Z,7.70
2023-04-21T03:00:33.676Z,7.71
2023-04-21T03:01:36.460Z,7.57
2023-04-21T03:02:38.440Z,7.56
2023-04-21T03:03:41.583Z,7.67
2023-04-21T03:04:43.119Z,7.61
2023-04-21T03:05:45.864Z,7.68
2023-04-21T03:06:47.373Z,7.70
2023-04-21T03:07:49.807Z,7.55
2023-04-21T03:08:52.252Z,7.48
2023-04-21T03:09:54.775Z,7.37
2023-04-21T03:10:56.238Z,7.35
2023-04-21T03:12:00.048Z,7.35
2023-04-21T03:13:01.805Z,7.41
2023-04-21T03:14:04.533Z,7.52
2023-04-21T03:15:06.953Z,7.53
2023-04-21T03:16:09.813Z,7.52
2023-04-21T03:17:11.471Z,7.60
2023-04-21T03:18:14.140Z,7.42
2023-04-21T03:19:15.654Z,7.44
2023-04-21T03:20:18.153Z,7.27
2023-04-21T03:21:20.290Z,7.24
2023-04-21T03:22:22.736Z,7.34
2023-04-21T03:23:24.269Z,7.21
2023-04-21T03:24:26.834Z,7.24
2023-04-21T03:25:28.698Z,7.24
2023-04-21T03:26:31.197Z,7.18
2023-04-21T03:27:34.334Z,7.16
2023-04-21T03:28:37.031Z,7.22
2023-04-21T03:29:38.678Z,7.19
2023-04-21T03:30:41.163Z,7.22
2023-04-21T03:31:42.726Z,7.32
2023-04-21T03:32:45.368Z,7.25
2023-04-21T03:33:46.862Z,7.29
2023-04-21T03:34:50.224Z,7.36
2023-04-21T03:35:51.725Z,7.19
2023-04-21T03:36:54.255Z,6.91
2023-04-21T03:37:55.747Z,6.49
2023-04-21T03:39:09.089Z,6.12
2023-04-21T03:40:14.692Z,5.70
2023-04-21T03:41:17.256Z,5.72
2023-04-21T03:42:18.802Z,6.14
2023-04-21T03:43:22.831Z,6.43
2023-04-21T03:44:25.770Z,6.59
2023-04-21T03:45:28.215Z,6.72
2023-04-21T03:46:29.959Z,6.62
2023-04-21T03:47:32.843Z,6.49
2023-04-21T03:48:34.560Z,6.01
2023-04-21T03:49:37.180Z,5.93
2023-04-21T03:50:38.987Z,5.74
2023-04-21T03:51:41.419Z,5.90
2023-04-21T03:52:42.962Z,6.25
2023-04-21T03:53:45.403Z,6.28
2023-04-21T03:54:47.088Z,6.47
2023-04-21T03:55:51.074Z,6.62
2023-04-21T03:56:52.647Z,6.82
2023-04-21T03:57:55.439Z,6.85
2023-04-21T03:58:58.410Z,6.87
2023-04-21T04:00:00.929Z,6.81
2023-04-21T04:01:02.512Z,6.90
2023-04-21T04:02:05.556Z,6.93
2023-04-21T04:03:07.542Z,7.00
2023-04-21T04:04:10.492Z,6.99
2023-04-21T04:05:12.395Z,7.05
2023-04-21T04:06:15.000Z,7.04
2023-04-21T04:07:17.622Z,7.05
2023-04-21T04:08:20.790Z,6.97
2023-04-21T04:09:22.420Z,6.97
2023-04-21T04:10:25.286Z,6.96
2023-04-21T04:11:26.789Z,6.94
2023-04-21T04:12:29.447Z,6.96
2023-04-21T04:13:31.106Z,6.93
2023-04-21T04:14:35.160Z,7.02
2023-04-21T04:15:37.980Z,6.94
2023-04-21T04:16:39.611Z,7.02
2023-04-21T04:17:42.128Z,7.00
2023-04-21T04:18:43.800Z,6.99
2023-04-21T04:19:46.319Z,6.89
2023-04-21T04:20:48.004Z,6.98
2023-04-21T04:21:50.487Z,7.03
2023-04-21T04:22:51.982Z,6.94
2023-04-21T04:23:54.459Z,6.91
2023-04-21T04:24:57.302Z,7.04
2023-04-21T04:26:01.631Z,7.10
2023-04-21T04:27:03.741Z,7.17
2023-04-21T04:28:07.359Z,7.15
2023-04-21T04:29:10.536Z,7.13
2023-04-21T04:30:14.741Z,7.17
2023-04-21T04:31:17.595Z,7.22
2023-04-21T04:32:20.813Z,7.33
2023-04-21T04:33:22.631Z,7.38
2023-04-21T04:34:25.232Z,7.39
2023-04-21T04:35:26.970Z,7.34
2023-04-21T04:36:29.477Z,7.45
2023-04-21T04:37:34.570Z,7.41
2023-04-21T04:38:37.544Z,7.49
2023-04-21T04:39:39.348Z,7.43
2023-04-21T04:40:42.556Z,7.18
2023-04-21T04:41:44.074Z,7.30
2023-04-21T04:42:47.008Z,7.36
2023-04-21T04:43:48.553Z,7.51
2023-04-21T04:44:54.106Z,7.37
2023-04-21T04:45:57.374Z,7.36
2023-04-21T04:46:59.858Z,7.48
2023-04-21T04:48:01.542Z,7.55
2023-04-21T04:49:04.667Z,7.56
2023-04-21T04:50:07.246Z,7.57
2023-04-21T04:51:09.759Z,7.56
2023-04-21T04:52:11.353Z,7.52
2023-04-21T04:53:13.876Z,7.48
2023-04-21T04:54:15.333Z,7.52
2023-04-21T04:55:18.735Z,7.60
2023-04-21T04:56:20.362Z,7.53
2023-04-21T04:57:23.341Z,7.71
2023-04-21T04:58:24.904Z,7.78
2023-04-21T04:59:29.039Z,7.81
2023-04-21T05:00:31.849Z,7.71
2023-04-21T05:01:35.948Z,7.69
2023-04-21T05:02:38.145Z,7.57
2023-04-21T05:03:40.817Z,7.70
2023-04-21T05:04:42.477Z,7.80
2023-04-21T05:05:46.050Z,7.82
2023-04-21T05:06:47.824Z,7.79
2023-04-21T05:07:50.342Z,7.72
2023-04-21T05:08:51.929Z,7.78
2023-04-21T05:09:54.521Z,7.80
2023-04-21T05:10:56.114Z,7.53
2023-04-21T05:11:58.903Z,7.39
2023-04-21T05:13:00.698Z,7.54
2023-04-21T05:14:03.208Z,7.68
2023-04-21T05:15:05.822Z,7.84
2023-04-21T05:16:11.340Z,7.69
2023-04-21T05:17:14.341Z,7.87
2023-04-21T05:18:16.849Z,7.87
2023-04-21T05:19:18.836Z,7.89
2023-04-21T05:20:21.708Z,7.81
2023-04-21T05:21:25.323Z,7.84
2023-04-21T05:22:27.900Z,7.77
2023-04-21T05:23:29.473Z,7.95
2023-04-21T05:24:31.963Z,8.12
2023-04-21T05:25:33.568Z,8.22
2023-04-21T05:26:36.008Z,8.33
2023-04-21T05:27:37.556Z,8.41
2023-04-21T05:28:39.971Z,8.42
2023-04-21T05:29:41.462Z,8.50
2023-04-21T05:30:43.954Z,8.29
2023-04-21T05:31:45.798Z,8.34
2023-04-21T05:32:49.820Z,8.40
2023-04-21T05:33:51.872Z,8.53
2023-04-21T05:34:54.503Z,8.53
2023-04-21T05:35:55.965Z,8.60
2023-04-21T05:36:58.609Z,8.55
2023-04-21T05:38:00.126Z,8.58
2023-04-21T05:39:02.615Z,8.50
2023-04-21T05:40:04.603Z,8.58
2023-04-21T05:41:07.404Z,8.72
2023-04-21T05:42:11.032Z,8.69
2023-04-21T05:43:12.492Z,8.72
2023-04-21T05:44:18.083Z,8.84
2023-04-21T05:45:20.452Z,8.98
2023-04-21T05:46:23.239Z,9.00
2023-04-21T05:47:24.884Z,9.13
2023-04-21T05:48:29.306Z,9.06
2023-04-21T05:49:30.912Z,9.21
2023-04-21T05:50:35.483Z,9.22
2023-04-21T05:51:37.188Z,9.14
2023-04-21T05:52:39.954Z,8.78
2023-04-21T05:53:42.786Z,8.42
2023-04-21T05:54:45.471Z,8.49
2023-04-21T05:55:47.286Z,8.43
2023-04-21T05:56:49.893Z,8.73
2023-04-21T05:57:51.448Z,8.96
2023-04-21T05:58:53.895Z,9.04
2023-04-21T05:59:55.595Z,9.06
2023-04-21T06:00:58.110Z,9.14
2023-04-21T06:02:00.663Z,9.23
2023-04-21T06:03:02.791Z,9.16
2023-04-21T06:04:07.125Z,8.91
2023-04-21T06:05:09.205Z,8.82
2023-04-21T06:06:13.271Z,8.80
2023-04-21T06:07:16.908Z,9.00
2023-04-21T06:08:20.879Z,9.24
2023-04-21T06:09:22.611Z,9.00
2023-04-21T06:10:25.420Z,8.82
2023-04-21T06:11:27.194Z,8.75
2023-04-21T06:12:29.636Z,8.76
2023-04-21T06:13:31.103Z,8.86
2023-04-21T06:14:36.303Z,8.78
2023-04-21T06:15:37.870Z,8.66
2023-04-21T06:16:40.726Z,8.84
2023-04-21T06:17:42.502Z,8.75
2023-04-21T06:18:45.113Z,8.72
2023-04-21T06:19:53.127Z,8.91
2023-04-21T06:20:57.053Z,8.92
2023-04-21T06:21:58.598Z,8.94
2023-04-21T06:23:01.074Z,8.94
2023-04-21T06:24:02.595Z,9.12
2023-04-21T06:25:05.731Z,9.02
2023-04-21T06:26:07.427Z,8.91
2023-04-21T06:27:13.554Z,8.91
2023-04-21T06:28:15.090Z,9.06
2023-04-21T06:29:17.664Z,9.06
2023-04-21T06:30:19.312Z,9.08
2023-04-21T06:31:21.958Z,9.07
2023-04-21T06:32:23.677Z,9.22
2023-04-21T06:33:26.748Z,9.21
2023-04-21T06:34:28.269Z,9.31
2023-04-21T06:35:32.309Z,9.35
2023-04-21T06:36:33.825Z,9.25
2023-04-21T06:37:36.382Z,9.39
2023-04-21T06:38:40.023Z,9.46
2023-04-21T06:39:42.704Z,9.57
2023-04-21T06:40:44.489Z,9.58
2023-04-21T06:41:47.383Z,9.53
2023-04-21T06:42:48.870Z,9.64
2023-04-21T06:43:51.890Z,9.68
2023-04-21T06:44:53.508Z,9.71
2023-04-21T06:45:56.009Z,9.82
2023-04-21T06:46:58.150Z,9.95
2023-04-21T06:48:00.788Z,10.03
2023-04-21T06:49:02.598Z,10.25
2023-04-21T06:50:06.020Z,10.20
2023-04-21T06:51:10.222Z,10.22
2023-04-21T06:52:12.690Z,10.26
2023-04-21T06:53:14.259Z,10.38
2023-04-21T06:54:16.932Z,10.33
2023-04-21T06:55:18.883Z,10.37
2023-04-21T06:56:21.846Z,10.48
2023-04-21T06:57:27.128Z,10.34
2023-04-21T06:58:28.678Z,10.33
2023-04-21T06:59:31.623Z,10.28
2023-04-21T07:00:33.282Z,10.37
2023-04-21T07:01:35.829Z,10.59
2023-04-21T07:02:37.501Z,10.72
2023-04-21T07:03:40.154Z,10.61
2023-04-21T07:04:43.267Z,10.69
2023-04-21T07:05:45.129Z,10.71
2023-04-21T07:06:49.597Z,10.83
2023-04-21T07:07:51.227Z,10.97
2023-04-21T07:08:53.824Z,11.08
2023-04-21T07:09:55.477Z,11.03
2023-04-21T07:10:58.064Z,11.04
2023-04-21T07:11:59.741Z,11.06
2023-04-21T07:13:02.418Z,11.12
2023-04-21T07:14:04.186Z,11.21
2023-04-21T07:15:08.509Z,11.26
2023-04-21T07:16:10.316Z,11.29
2023-04-21T07:17:13.003Z,11.25
2023-04-21T07:18:15.717Z,11.27
2023-04-21T07:19:17.672Z,11.38
2023-04-21T07:20:20.816Z,11.50
2023-04-21T07:21:22.437Z,11.58
2023-04-21T07:22:26.541Z,11.60
2023-04-21T07:23:29.279Z,11.66
2023-04-21T07:24:32.077Z,11.71
2023-04-21T07:25:34.976Z,11.62
2023-04-21T07:26:37.931Z,11.71
2023-04-21T07:27:39.671Z,11.77
2023-04-21T07:28:42.239Z,11.74
2023-04-21T07:29:43.853Z,11.79
2023-04-21T07:30:46.492Z,11.71
2023-04-21T07:31:48.453Z,11.70
2023-04-21T07:32:52.251Z,11.67
2023-04-21T07:33:54.867Z,11.79
2023-04-21T07:34:56.521Z,11.81
2023-04-21T07:35:59.226Z,11.88
2023-04-21T07:37:01.081Z,11.92
2023-04-21T07:38:04.899Z,12.09
2023-04-21T07:39:06.892Z,12.23
2023-04-21T07:40:10.303Z,12.23
2023-04-21T07:41:13.656Z,12.27
2023-04-21T07:42:15.281Z,12.38
2023-04-21T07:43:19.638Z,12.49
2023-04-21T07:44:21.461Z,12.47
2023-04-21T07:45:24.155Z,12.56
2023-04-21T07:46:30.465Z,12.59
2023-04-21T07:47:32.972Z,12.61
2023-04-21T07:48:35.554Z,12.67
2023-04-21T07:49:38.372Z,12.59
2023-04-21T07:50:42.546Z,12.53
2023-04-21T07:51:44.310Z,12.57
2023-04-21T07:52:48.075Z,12.56
2023-04-21T07:53:51.727Z,12.76
2023-04-21T07:54:54.536Z,12.85
2023-04-21T07:55:57.284Z,12.88
2023-04-21T07:56:59.041Z,12.97
2023-04-21T07:58:01.687Z,13.08
2023-04-21T07:59:03.363Z,13.21
2023-04-21T08:00:07.211Z,13.28
2023-04-21T08:01:09.033Z,13.28
2023-04-21T08:02:11.900Z,13.36
2023-04-21T08:03:13.782Z,13.45
2023-04-21T08:04:16.550Z,13.47
2023-04-21T08:05:19.990Z,13.56
2023-04-21T08:06:21.762Z,13.70
2023-04-21T08:07:24.745Z,13.71
2023-04-21T08:08:26.668Z,13.68
2023-04-21T08:09:30.667Z,13.74
2023-04-21T08:10:32.277Z,13.84
2023-04-21T08:11:34.773Z,13.75
2023-04-21T08:12:36.833Z,13.83
2023-04-21T08:13:39.885Z,13.70
2023-04-21T08:14:41.535Z,13.75
2023-04-21T08:15:44.250Z,13.79
2023-04-21T08:16:47.450Z,13.83
2023-04-21T08:17:50.452Z,13.99
2023-04-21T08:18:51.993Z,14.01
2023-04-21T08:19:54.965Z,14.14
2023-04-21T08:20:58.076Z,14.21
2023-04-21T08:21:59.708Z,14.24
2023-04-21T08:23:14.751Z,14.44
2023-04-21T08:24:17.735Z,14.38
2023-04-21T08:25:21.126Z,14.50
2023-04-21T08:26:25.213Z,14.60
2023-04-21T08:27:27.111Z,14.56
2023-04-21T08:28:29.756Z,14.57
2023-04-21T08:29:31.921Z,14.59
2023-04-21T08:30:34.727Z,14.51
2023-04-21T08:31:36.508Z,14.53
2023-04-21T08:32:39.130Z,14.56
2023-04-21T08:33:49.808Z,14.55
2023-04-21T08:35:08.680Z,14.69
2023-04-21T08:36:21.934Z,14.82
2023-04-21T08:37:31.701Z,14.85
2023-04-21T08:38:33.513Z,14.86
2023-04-21T08:39:36.109Z,14.89
2023-04-21T08:40:39.536Z,14.96
2023-04-21T08:41:42.465Z,14.99
2023-04-21T08:42:47.898Z,15.08
2023-04-21T08:43:50.977Z,14.98
2023-04-21T08:44:54.688Z,14.98
2023-04-21T08:45:57.971Z,15.12
2023-04-21T08:47:04.293Z,15.09
2023-04-21T08:48:07.390Z,15.16
2023-04-21T08:49:11.145Z,15.10
2023-04-21T08:50:15.631Z,14.98
2023-04-21T08:51:22.358Z,15.07
2023-04-21T08:52:24.984Z,15.20
2023-04-21T08:53:27.010Z,15.31
2023-04-21T08:54:30.059Z,15.43
2023-04-21T08:55:34.183Z,15.47
2023-04-21T08:56:38.359Z,15.42
2023-04-21T08:57:41.133Z,15.45
2023-04-21T08:58:42.766Z,15.44
2023-04-21T08:59:45.791Z,15.29
2023-04-21T09:00:47.711Z,15.35
2023-04-21T09:02:12.964Z,15.54
2023-04-21T09:03:26.378Z,15.63
2023-04-21T09:04:30.524Z,15.60
2023-04-21T09:05:36.043Z,15.56
2023-04-21T09:06:43.411Z,15.64
2023-04-21T09:07:46.426Z,15.70
2023-04-21T09:08:56.180Z,15.74
2023-04-21T09:10:25.745Z,15.83
2023-04-21T09:13:37.065Z,16.00
2023-04-21T09:15:01.007Z,16.04
2023-04-21T09:16:23.805Z,16.14
2023-04-21T09:17:46.747Z,16.18
2023-04-21T09:19:15.569Z,16.22
2023-04-21T09:20:38.365Z,16.34
2023-04-21T09:22:01.390Z,16.45
2023-04-21T09:23:23.983Z,16.24
2023-04-21T09:24:48.019Z,16.21
2023-04-21T09:26:11.127Z,16.30
2023-04-21T09:27:37.099Z,16.34
2023-04-21T09:28:59.846Z,16.40
2023-04-21T09:30:23.004Z,16.34
2023-04-21T09:31:46.288Z,16.35
2023-04-21T09:33:20.206Z,16.32
2023-04-21T09:34:51.072Z,16.14
2023-04-21T09:36:20.780Z,16.28
2023-04-21T09:37:45.384Z,16.52
2023-04-21T09:40:35.120Z,16.64
2023-04-21T09:41:58.931Z,16.72
2023-04-21T09:43:23.009Z,16.54
2023-04-21T09:44:52.445Z,16.53
2023-04-21T09:46:20.364Z,16.61
2023-04-21T09:47:43.703Z,16.73
2023-04-21T09:49:07.074Z,16.97
2023-04-21T09:52:17.487Z,17.32
2023-04-21T09:53:41.862Z,17.34
2023-04-21T09:55:08.147Z,17.34
2023-04-21T09:56:34.518Z,17.27
2023-04-21T09:58:00.491Z,17.28
2023-04-21T09:59:28.299Z,17.23
2023-04-21T10:00:52.913Z,17.31
2023-04-21T10:02:16.224Z,17.12
2023-04-21T10:03:41.130Z,17.31
2023-04-21T10:05:06.287Z,17.59
2023-04-21T10:06:29.608Z,17.63
2023-04-21T10:07:52.128Z,17.56
2023-04-21T10:09:17.534Z,17.67
2023-04-21T10:10:40.714Z,17.48
2023-04-21T10:12:05.036Z,17.86
2023-04-21T10:13:29.357Z,17.79
2023-04-21T10:14:54.210Z,18.01
2023-04-21T10:16:19.833Z,18.30
2023-04-21T10:17:42.563Z,18.51
2023-04-21T10:19:24.349Z,18.39
2023-04-21T10:20:57.369Z,18.57
2023-04-21T10:22:30.315Z,18.65
2023-04-21T10:23:55.578Z,18.53
2023-04-21T10:25:18.430Z,18.14
2023-04-21T10:26:41.014Z,18.49
2023-04-21T10:28:07.792Z,19.03
2023-04-21T10:29:43.765Z,19.33
2023-04-21T10:31:36.289Z,20.12
2023-04-21T10:33:08.284Z,20.84
2023-04-21T10:34:35.368Z,21.91
2023-04-21T10:36:03.207Z,21.75
2023-04-21T10:37:26.331Z,20.76
2023-04-21T10:38:56.607Z,21.89
2023-04-21T10:40:44.318Z,22.83
2023-04-21T10:42:20.785Z,22.46
2023-04-21T10:43:48.429Z,21.70
2023-04-21T10:45:13.251Z,21.32
2023-04-21T10:46:38.702Z,20.22
2023-04-21T10:48:04.066Z,19.85
2023-04-21T10:49:29.024Z,20.49
2023-04-21T10:50:51.586Z,20.58
2023-04-21T10:52:17.468Z,20.50
2023-04-21T10:53:44.908Z,20.72
2023-04-21T10:55:12.484Z,21.59
2023-04-21T10:56:37.476Z,21.41
2023-04-21T10:58:03.777Z,21.49
2023-04-21T10:59:27.787Z,22.03
2023-04-21T11:00:55.109Z,21.52
2023-04-21T11:02:20.431Z,20.07
2023-04-21T11:03:43.397Z,19.81
2023-04-21T11:05:07.518Z,20.32
2023-04-21T11:06:30.257Z,20.72
2023-04-21T11:07:51.974Z,21.65
2023-04-21T11:09:17.115Z,23.08
2023-04-21T11:10:47.473Z,23.41
2023-04-21T11:12:11.865Z,22.59
2023-04-21T11:13:35.071Z,21.72
2023-04-21T11:14:57.382Z,22.86
2023-04-21T11:16:23.223Z,22.80
2023-04-21T11:17:48.129Z,24.32
2023-04-21T11:19:11.003Z,23.46
2023-04-21T11:20:33.782Z,23.42
2023-04-21T11:21:56.446Z,23.28
2023-04-21T11:23:19.647Z,23.13
2023-04-21T11:24:46.248Z,22.79
2023-04-21T11:26:07.861Z,23.31
2023-04-21T11:27:31.512Z,23.63
2023-04-21T11:28:54.140Z,23.79
2023-04-21T11:30:16.806Z,23.38
2023-04-21T11:31:41.361Z,23.79
2023-04-21T11:33:05.763Z,23.77
2023-04-21T11:34:28.804Z,24.88
2023-04-21T11:35:51.662Z,25.05
2023-04-21T11:37:17.547Z,24.09
2023-04-21T11:38:41.196Z,24.28
2023-04-21T11:40:07.782Z,25.37
2023-04-21T11:41:30.814Z,25.55
2023-04-21T11:42:53.706Z,24.88
2023-04-21T11:44:33.103Z,24.77
2023-04-21T11:45:55.837Z,24.38
2023-04-21T11:47:19.900Z,23.91
2023-04-21T11:48:44.604Z,23.68
2023-04-21T11:50:08.163Z,23.52
2023-04-21T11:51:34.864Z,23.51
2023-04-21T11:53:03.128Z,24.43
2023-04-21T11:54:26.142Z,23.86
2023-04-21T11:55:49.367Z,22.07
2023-04-21T11:57:12.211Z,22.69
2023-04-21T11:58:35.446Z,22.43
2023-04-21T11:59:59.968Z,22.79
2023-04-21T12:01:23.252Z,23.44
2023-04-21T12:02:55.675Z,23.86
2023-04-21T12:04:22.068Z,22.80
2023-04-21T12:05:46.853Z,21.80
2023-04-21T12:07:09.606Z,22.53
2023-04-21T12:08:32.801Z,23.29
2023-04-21T12:09:55.421Z,24.41
2023-04-21T12:11:18.253Z,23.88
2023-04-21T12:12:41.812Z,22.36
2023-04-21T12:14:04.371Z,23.69
2023-04-21T12:15:27.258Z,24.35
2023-04-21T12:16:51.701Z,25.83
2023-04-21T12:18:15.027Z,25.32
2023-04-21T12:19:41.123Z,25.09
2023-04-21T12:21:04.333Z,24.50
2023-04-21T12:22:27.145Z,23.79
2023-04-21T12:23:50.130Z,24.46
2023-04-21T12:25:12.943Z,24.51
2023-04-21T12:26:35.512Z,24.60
2023-04-21T12:27:59.779Z,24.59
2023-04-21T12:29:01.519Z,23.90
2023-04-21T12:30:05.237Z,23.46
2023-04-21T12:31:07.074Z,23.47
2023-04-21T12:32:11.106Z,23.91
2023-04-21T12:33:13.241Z,24.54
2023-04-21T12:34:16.187Z,24.75
2023-04-21T12:35:19.270Z,24.67
2023-04-21T12:36:21.916Z,24.75
2023-04-21T12:37:24.429Z,25.07
2023-04-21T12:38:26.167Z,24.44
2023-04-21T12:39:29.366Z,24.77
2023-04-21T12:40:31.310Z,24.66
2023-04-21T12:41:35.294Z,25.14
2023-04-21T12:42:38.483Z,24.43
2023-04-21T12:43:40.269Z,24.45
2023-04-21T12:44:42.755Z,24.14
2023-04-21T12:45:44.627Z,24.79
2023-04-21T12:46:49.180Z,24.40
2023-04-21T12:47:50.878Z,25.11
2023-04-21T12:48:53.640Z,25.85
2023-04-21T12:49:55.469Z,25.14
2023-04-21T12:50:59.741Z,24.94
2023-04-21T12:52:02.247Z,24.20
2023-04-21T12:53:05.153Z,24.83
2023-04-21T12:54:07.836Z,25.04
2023-04-21T12:55:10.768Z,24.59
2023-04-21T12:56:16.335Z,24.37
2023-04-21T12:57:18.133Z,24.68
2023-04-21T12:58:20.983Z,24.06
2023-04-21T12:59:22.698Z,23.25
2023-04-21T13:00:25.526Z,22.84
2023-04-21T13:01:28.540Z,22.33
2023-04-21T13:02:31.226Z,21.50
2023-04-21T13:03:34.225Z,21.16
2023-04-21T13:04:36.630Z,20.78
2023-04-21T13:05:39.349Z,20.83
2023-04-21T13:06:43.467Z,21.58
2023-04-21T13:07:45.353Z,21.73
2023-04-21T13:08:47.987Z,22.61
2023-04-21T13:09:52.048Z,22.63
2023-04-21T13:10:55.256Z,23.52
2023-04-21T13:11:57.116Z,23.56
2023-04-21T13:12:59.832Z,22.67
2023-04-21T13:14:04.172Z,23.36
2023-04-21T13:15:08.074Z,24.02
2023-04-21T13:16:09.758Z,24.37
2023-04-21T13:17:15.281Z,24.35
2023-04-21T13:18:17.496Z,24.03
2023-04-21T13:19:29.754Z,22.61
2023-04-21T13:20:33.890Z,22.15
2023-04-21T13:21:35.559Z,22.00
2023-04-21T13:22:39.715Z,21.61
2023-04-21T13:23:42.002Z,22.22
2023-04-21T13:24:47.159Z,22.53
2023-04-21T13:25:50.763Z,22.85
2023-04-21T13:26:53.452Z,23.40
2023-04-21T13:27:56.195Z,23.52
2023-04-21T13:28:57.857Z,22.79
2023-04-21T13:30:00.389Z,22.28
2023-04-21T13:31:03.098Z,22.35
2023-04-21T13:32:06.783Z,22.72
2023-04-21T13:33:09.750Z,22.62
2023-04-21T13:34:11.476Z,23.15
2023-04-21T13:35:14.650Z,22.22
2023-04-21T13:36:16.734Z,22.22
2023-04-21T13:37:20.079Z,22.73
2023-04-21T13:38:23.090Z,23.06
2023-04-21T13:39:25.738Z,23.57
2023-04-21T13:40:27.445Z,23.29
2023-04-21T13:41:29.987Z,22.96
2023-04-21T13:42:36.368Z,22.70
2023-04-21T13:43:38.935Z,21.53
2023-04-21T13:44:40.711Z,20.95
2023-04-21T13:45:43.390Z,20.83
2023-04-21T13:46:46.806Z,21.28
2023-04-21T13:47:48.377Z,22.04
2023-04-21T13:48:51.761Z,22.45
2023-04-21T13:49:53.398Z,21.91
2023-04-21T13:50:56.099Z,22.33
2023-04-21T13:51:57.603Z,22.20
2023-04-21T13:53:00.456Z,21.66
2023-04-21T13:54:03.480Z,21.81
2023-04-21T13:55:07.380Z,21.84
2023-04-21T13:56:11.448Z,21.66
2023-04-21T13:57:14.189Z,21.99
2023-04-21T13:58:16.765Z,22.06
2023-04-21T13:59:21.039Z,22.00
2023-04-21T14:00:24.149Z,22.62
2023-04-21T14:01:26.719Z,21.73
2023-04-21T14:02:29.680Z,21.45
2023-04-21T14:03:31.608Z,21.32
2023-04-21T14:04:34.975Z,21.11
2023-04-21T14:05:37.225Z,21.22
2023-04-21T14:06:40.007Z,21.52
2023-04-21T14:07:42.895Z,21.51
2023-04-21T14:08:45.325Z,21.79
2023-04-21T14:09:50.321Z,21.62
2023-04-21T14:10:53.397Z,21.59
2023-04-21T14:11:55.432Z,21.47
2023-04-21T14:12:58.468Z,21.57
2023-04-21T14:15:10.103Z,21.58
2023-04-21T14:16:12.033Z,21.43
2023-04-21T14:17:16.609Z,21.64
2023-04-21T14:18:20.430Z,21.96
2023-04-21T14:19:25.330Z,21.67
2023-04-21T14:20:27.901Z,21.70
2023-04-21T14:21:29.825Z,22.16
2023-04-21T14:22:32.991Z,22.13
2023-04-21T14:23:34.760Z,21.89
2023-04-21T14:24:37.425Z,21.46
2023-04-21T14:25:41.655Z,21.71
2023-04-21T14:26:43.396Z,21.66
2023-04-21T14:27:45.856Z,21.55
2023-04-21T14:28:47.485Z,21.98
2023-04-21T14:29:50.083Z,22.06
2023-04-21T14:30:51.661Z,22.19
2023-04-21T14:31:58.001Z,21.99
2023-04-21T14:32:59.853Z,22.03
2023-04-21T14:34:02.683Z,21.94
2023-04-21T14:35:05.621Z,21.81
2023-04-21T14:36:08.367Z,21.51
2023-04-21T14:37:10.150Z,21.65
2023-04-21T14:38:12.707Z,21.21
2023-04-21T14:39:14.332Z,21.49
2023-04-21T14:40:16.914Z,21.85
2023-04-21T14:41:48.022Z,21.90